Japan Airlines Virtual Airport Information Service

Vancouver International Airport

ICAO: CYVR Country: Canada
Latitude: 49.1939 Longitude: -123.184
Latest Arrival : JAL18 (RJAA-CYVR) Latest Departure : WJA244 (CYVR-CYWG)


WX CaptureLIVE
Data provided by noaa.gov | Fetched at 06:55:55

METAR : CYVR 090600Z 32005KT 15SM -RA BKN053 OVC085 15/14 A3002 RMK SC7AC1 SLP166

TAF : CYVR 090542Z 0906/1012 VRB03KT P6SM FEW040 BKN080 OVC140 TEMPO 0906/0912 P6SM -RA FM091200 10006KT P6SM SCT015 OVC040 TEMPO 0912/0920 4SM -RA BR SCT008 OVC015 FM092000 16010KT P6SM FEW020 BKN040 TEMPO 0920/0924 P6SM -SHRA FM100000 14010KT P6SM FEW020 SCT040 TEMPO 1000/1006 BKN040 RMK NXT FCST BY 090900Z


Runway Data for CYVR
Data provided by openaviationdata.com

Runway ID Mag Var Hdg Length Elevation Surface ILS Freq ILS Id ILS Slope
08L 19 81° 9918 ft 14 ft Concrete 110.55 ITL 3
08R 19 80° 11962 ft 14 ft Asphalt 109.5 IVR 3
12 19 122° 7290 ft 14 ft Asphalt 111.1 IMK 3
26L 19 260° 11962 ft 14 ft Asphalt 110.7 IFZ 3
26R 19 261° 9918 ft 14 ft Concrete 111.95 IRD 3
30 19 302° 7290 ft 14 ft Asphalt -- -- --

Vancouver International Airport, Canada
Use only for reference purposes



Not for navigational purposes.